createdAt,value
2022-09-28T00:01:25.788Z,1.30
2022-09-28T00:04:14.275Z,1.30
2022-09-28T00:07:01.424Z,1.10
2022-09-28T00:09:51.263Z,1.00
2022-09-28T00:12:38.939Z,1.27
2022-09-28T00:15:27.385Z,1.30
2022-09-28T00:18:14.160Z,0.90
2022-09-28T00:21:14.255Z,0.65
2022-09-28T00:24:15.818Z,0.90
2022-09-28T00:27:04.325Z,0.73
2022-09-28T00:29:51.573Z,0.90
2022-09-28T00:32:40.266Z,1.17
2022-09-28T00:35:27.244Z,1.30
2022-09-28T00:38:18.257Z,1.30
2022-09-28T00:41:05.484Z,1.30
2022-09-28T00:43:54.305Z,1.30
2022-09-28T00:46:41.681Z,1.02
2022-09-28T00:49:45.232Z,1.17
2022-09-28T00:52:53.340Z,1.38
2022-09-28T00:55:57.226Z,1.20
2022-09-28T00:58:47.094Z,1.10
2022-09-28T01:01:35.319Z,1.00
2022-09-28T01:04:25.888Z,1.00
2022-09-28T01:07:18.243Z,1.30
2022-09-28T01:10:07.033Z,1.00
2022-09-28T01:12:57.267Z,1.10
2022-09-28T01:16:02.245Z,0.73
2022-09-28T01:19:24.239Z,1.63
2022-09-28T01:22:27.662Z,0.80
2022-09-28T01:25:33.247Z,0.80
2022-09-28T01:28:23.857Z,0.70
2022-09-28T01:31:15.332Z,0.98
2022-09-28T01:34:18.200Z,0.70
2022-09-28T01:37:11.250Z,0.60
2022-09-28T01:40:01.137Z,0.60
2022-09-28T01:42:59.247Z,0.55
2022-09-28T01:45:50.564Z,1.00
2022-09-28T01:48:51.321Z,0.40
2022-09-28T01:51:51.198Z,0.40
2022-09-28T01:54:48.243Z,0.70
2022-09-28T01:57:41.910Z,0.70
2022-09-28T02:00:30.355Z,0.70
2022-09-28T02:03:24.138Z,0.80
2022-09-28T02:06:21.237Z,0.38
2022-09-28T02:09:18.478Z,0.25
2022-09-28T02:12:24.221Z,0.55
2022-09-28T02:15:31.779Z,0.38
2022-09-28T02:18:20.228Z,0.30
2022-09-28T02:21:13.130Z,0.47
2022-09-28T02:24:10.233Z,0.30
2022-09-28T02:27:00.390Z,0.22
2022-09-28T02:29:50.246Z,0.30
2022-09-28T02:32:40.755Z,0.30
2022-09-28T02:35:29.249Z,0.40
2022-09-28T02:38:16.318Z,0.32
2022-09-28T02:41:22.239Z,0.43
2022-09-28T02:44:48.632Z,0.30
2022-09-28T02:47:49.321Z,0.45
2022-09-28T02:50:51.252Z,0.30
2022-09-28T02:54:16.656Z,0.32
2022-09-28T02:57:27.251Z,0.35
2022-09-28T03:00:21.215Z,0.38
2022-09-28T03:03:10.826Z,0.50
2022-09-28T03:06:05.174Z,0.50
2022-09-28T03:09:03.235Z,0.40
2022-09-28T03:11:57.230Z,0.47
2022-09-28T03:14:45.351Z,0.43
2022-09-28T03:17:33.195Z,0.40
2022-09-28T03:23:25.165Z,0.40
2022-09-28T03:26:12.902Z,0.50
2022-09-28T03:29:01.238Z,0.65
2022-09-28T03:31:49.093Z,1.13
2022-09-28T03:37:24.164Z,9.05
2022-09-28T03:40:12.184Z,5.03
2022-09-28T03:46:00.335Z,0.50
2022-09-28T03:48:47.528Z,0.30
2022-09-28T03:51:36.192Z,0.40
2022-09-28T03:54:22.998Z,0.40
2022-09-28T03:57:11.195Z,0.30
2022-09-28T03:59:58.011Z,0.65
2022-09-28T04:02:46.176Z,0.50
2022-09-28T04:05:32.955Z,0.50
2022-09-28T04:08:23.205Z,0.60
2022-09-28T04:11:10.369Z,0.50
2022-09-28T04:13:59.222Z,0.63
2022-09-28T04:16:48.072Z,0.50
2022-09-28T04:19:36.197Z,0.50
2022-09-28T04:22:23.396Z,0.40
2022-09-28T04:25:12.179Z,0.47
2022-09-28T04:28:17.624Z,0.60
2022-09-28T04:31:10.199Z,0.50
2022-09-28T04:33:57.761Z,0.47
2022-09-28T04:36:47.247Z,0.60
2022-09-28T04:39:33.960Z,0.55
2022-09-28T04:42:22.180Z,0.60
2022-09-28T04:45:09.575Z,0.50
2022-09-28T04:47:58.250Z,0.40
2022-09-28T04:50:52.652Z,0.70
2022-09-28T04:53:41.161Z,0.50
2022-09-28T04:56:28.083Z,0.40
2022-09-28T04:59:16.290Z,0.50
2022-09-28T05:02:03.829Z,0.30
2022-09-28T05:04:52.182Z,0.47
2022-09-28T05:07:39.143Z,0.50
2022-09-28T05:10:28.245Z,0.80
2022-09-28T05:13:15.035Z,0.65
2022-09-28T05:16:05.626Z,1.20
2022-09-28T05:19:01.546Z,0.90
2022-09-28T05:21:51.173Z,1.00
2022-09-28T05:24:37.951Z,1.13
2022-09-28T05:27:26.153Z,1.77
2022-09-28T05:30:13.305Z,1.67
2022-09-28T05:33:02.151Z,2.85
2022-09-28T05:35:53.811Z,1.85
2022-09-28T05:38:43.168Z,1.08
2022-09-28T05:41:30.062Z,1.30
2022-09-28T05:44:18.240Z,0.30
2022-09-28T05:47:05.264Z,0.70
2022-09-28T05:49:54.193Z,0.40
2022-09-28T05:52:40.972Z,1.40
2022-09-28T05:55:31.155Z,0.63
2022-09-28T05:58:17.935Z,0.30
2022-09-28T06:01:06.220Z,0.22
2022-09-28T06:03:53.053Z,1.10
2022-09-28T06:06:41.156Z,3.58
2022-09-28T06:09:27.990Z,5.10
2022-09-28T06:12:17.189Z,3.10
2022-09-28T06:15:04.366Z,1.20
2022-09-28T06:18:06.166Z,0.75
2022-09-28T06:20:52.986Z,0.40
2022-09-28T06:23:43.589Z,0.30
2022-09-28T06:26:32.461Z,0.20
2022-09-28T06:29:21.165Z,0.10
2022-09-28T06:32:09.943Z,0.10
2022-09-28T06:35:00.205Z,0.22
2022-09-28T06:37:47.351Z,0.75
2022-09-28T06:40:36.329Z,0.60
2022-09-28T06:43:23.346Z,0.40
2022-09-28T06:46:12.181Z,0.73
2022-09-28T06:48:59.032Z,1.50
2022-09-28T06:51:48.161Z,0.68
2022-09-28T06:54:35.085Z,0.30
2022-09-28T06:57:23.196Z,0.35
2022-09-28T07:00:10.654Z,0.50
2022-09-28T07:02:59.126Z,0.65
2022-09-28T07:05:49.450Z,0.75
2022-09-28T07:08:38.164Z,1.65
2022-09-28T07:11:26.919Z,1.80
2022-09-28T07:14:29.293Z,2.45
2022-09-28T07:17:25.523Z,1.55
2022-09-28T07:20:19.223Z,2.15
2022-09-28T07:23:18.483Z,3.25
2022-09-28T07:26:09.301Z,7.15
2022-09-28T07:28:56.314Z,7.22
2022-09-28T07:31:46.201Z,6.13
2022-09-28T07:34:37.905Z,3.30
2022-09-28T07:37:28.131Z,2.35
2022-09-28T07:40:33.548Z,2.40
2022-09-28T07:43:23.114Z,1.30
2022-09-28T07:46:12.339Z,1.10
2022-09-28T07:49:00.666Z,0.80
2022-09-28T07:51:47.434Z,0.70
2022-09-28T07:54:34.248Z,0.60
2022-09-28T07:57:22.096Z,0.60
2022-09-28T08:03:00.090Z,1.40
2022-09-28T08:05:47.602Z,1.13
2022-09-28T08:08:35.700Z,1.65
2022-09-28T08:11:23.737Z,1.50
2022-09-28T08:14:11.096Z,1.92
2022-09-28T08:16:57.953Z,2.00
2022-09-28T08:20:03.204Z,2.58
2022-09-28T08:22:51.329Z,3.20
2022-09-28T08:25:38.314Z,2.75
2022-09-28T08:28:25.685Z,3.90
2022-09-28T08:31:12.580Z,2.22
2022-09-28T08:34:00.736Z,1.30
2022-09-28T08:36:47.563Z,0.65
2022-09-28T08:39:35.199Z,0.85
2022-09-28T08:42:35.961Z,0.77
2022-09-28T08:45:28.442Z,0.90
2022-09-28T08:48:37.717Z,1.00
2022-09-28T08:51:50.401Z,2.00
2022-09-28T08:54:56.361Z,1.60
2022-09-28T08:58:06.103Z,0.70
2022-09-28T09:00:54.221Z,0.70
2022-09-28T09:03:44.103Z,0.70
2022-09-28T09:06:51.170Z,0.70
2022-09-28T09:10:03.404Z,0.85
2022-09-28T09:13:19.095Z,0.70
2022-09-28T09:16:44.160Z,0.80
2022-09-28T09:20:08.402Z,1.20
2022-09-28T09:22:59.871Z,0.90
2022-09-28T09:25:50.692Z,1.63
2022-09-28T09:28:46.300Z,1.15
2022-09-28T09:31:59.596Z,0.90
2022-09-28T09:34:59.192Z,0.90
2022-09-28T09:38:21.206Z,1.00
2022-09-28T09:41:22.501Z,1.85
2022-09-28T09:44:44.067Z,1.80
2022-09-28T09:47:43.232Z,1.23
2022-09-28T09:51:05.300Z,1.35
2022-09-28T09:54:03.738Z,1.10
2022-09-28T09:59:45.226Z,0.88
2022-09-28T10:02:35.705Z,1.00
2022-09-28T10:05:29.753Z,1.17
2022-09-28T10:08:20.594Z,0.88
2022-09-28T10:11:29.639Z,0.80
2022-09-28T10:17:05.125Z,0.60
2022-09-28T10:19:52.598Z,0.93
2022-09-28T10:22:40.830Z,1.40
2022-09-28T10:25:28.221Z,1.67
2022-09-28T10:28:21.828Z,1.05
2022-09-28T10:31:34.233Z,1.20
2022-09-28T10:34:29.223Z,1.10
2022-09-28T10:37:18.004Z,0.60
2022-09-28T10:40:05.494Z,0.77
2022-09-28T10:43:03.737Z,0.70
2022-09-28T10:46:03.108Z,0.68
2022-09-28T10:48:58.431Z,0.95
2022-09-28T10:51:51.807Z,1.10
2022-09-28T10:54:52.358Z,0.85
2022-09-28T10:57:40.814Z,0.93
2022-09-28T11:00:44.614Z,0.63
2022-09-28T11:03:32.105Z,0.80
2022-09-28T11:06:48.361Z,0.80
2022-09-28T11:09:42.630Z,0.63
2022-09-28T11:12:42.577Z,0.80
2022-09-28T11:15:33.032Z,1.00
2022-09-28T11:18:25.335Z,0.80
2022-09-28T11:21:27.894Z,0.95
2022-09-28T11:24:26.060Z,0.70
2022-09-28T11:27:25.382Z,0.85
2022-09-28T11:30:31.061Z,0.73
2022-09-28T11:33:29.929Z,0.88
2022-09-28T11:36:17.150Z,6.40
2022-09-28T11:39:17.985Z,3.35
2022-09-28T11:42:44.737Z,8.40
2022-09-28T11:46:06.822Z,1.88
2022-09-28T11:48:59.557Z,1.30
2022-09-28T11:51:49.819Z,1.20
2022-09-28T11:54:47.350Z,1.90
2022-09-28T11:57:40.937Z,1.60
2022-09-28T12:00:29.176Z,1.35
2022-09-28T12:03:27.077Z,1.05
2022-09-28T12:06:22.372Z,1.02
2022-09-28T12:09:47.051Z,2.35
2022-09-28T12:12:50.913Z,1.90
2022-09-28T12:16:07.483Z,1.50
2022-09-28T12:19:05.593Z,1.33
2022-09-28T12:21:59.044Z,1.10
2022-09-28T12:24:50.857Z,1.10
2022-09-28T12:27:49.051Z,1.40
2022-09-28T12:30:40.677Z,1.88
2022-09-28T12:33:29.048Z,1.52
2022-09-28T12:36:21.259Z,2.15
2022-09-28T12:39:57.911Z,1.42
2022-09-28T12:42:54.613Z,2.08
2022-09-28T12:46:10.935Z,2.50
2022-09-28T12:50:07.286Z,2.65
2022-09-28T12:55:41.652Z,2.13
2022-09-28T12:58:50.020Z,1.80
2022-09-28T13:02:02.460Z,1.63
2022-09-28T13:05:15.992Z,1.38
2022-09-28T13:08:21.381Z,1.70
2022-09-28T13:11:35.047Z,2.00
2022-09-28T13:14:30.680Z,1.85
2022-09-28T13:17:48.034Z,2.10
2022-09-28T13:20:47.937Z,2.90
2022-09-28T13:23:42.037Z,3.92
2022-09-28T13:26:37.097Z,3.60
2022-09-28T13:29:27.093Z,3.67
2022-09-28T13:32:15.186Z,3.20
2022-09-28T13:35:04.026Z,2.50
2022-09-28T13:38:16.343Z,2.28
2022-09-28T13:41:08.000Z,2.03
2022-09-28T13:44:13.100Z,2.00
2022-09-28T13:47:23.996Z,2.08
2022-09-28T13:50:26.444Z,2.08
2022-09-28T13:53:24.013Z,2.55
2022-09-28T13:56:30.477Z,2.90
2022-09-28T13:59:29.018Z,3.15
2022-09-28T14:05:08.015Z,2.65
2022-09-28T14:08:11.525Z,2.80
2022-09-28T14:11:26.016Z,2.92
2022-09-28T14:14:16.093Z,2.75
2022-09-28T14:17:22.990Z,2.20
2022-09-28T14:20:15.010Z,1.80
2022-09-28T14:23:32.987Z,1.70
2022-09-28T14:26:41.903Z,1.40
2022-09-28T14:29:33.960Z,1.40
2022-09-28T14:32:24.494Z,1.67
2022-09-28T14:35:36.010Z,1.83
2022-09-28T14:38:47.399Z,1.50
2022-09-28T14:42:17.268Z,0.98
2022-09-28T14:45:08.325Z,1.20
2022-09-28T14:48:06.988Z,0.80
2022-09-28T14:50:55.755Z,0.95
2022-09-28T14:53:43.993Z,0.93
2022-09-28T14:56:44.643Z,1.27
2022-09-28T14:59:38.023Z,1.10
2022-09-28T15:02:30.465Z,1.20
2022-09-28T15:05:25.057Z,1.10
2022-09-28T15:08:12.385Z,1.33
2022-09-28T15:11:01.987Z,1.30
2022-09-28T15:13:53.261Z,1.00
2022-09-28T15:16:41.993Z,1.17
2022-09-28T15:19:40.116Z,0.98
2022-09-28T15:22:28.963Z,0.70
2022-09-28T15:25:19.988Z,1.00
2022-09-28T15:28:23.988Z,1.20
2022-09-28T15:31:18.715Z,1.00
2022-09-28T15:34:25.976Z,1.38
2022-09-28T15:37:15.601Z,1.60
2022-09-28T15:40:05.059Z,1.33
2022-09-28T15:42:53.904Z,1.70
2022-09-28T15:45:49.027Z,1.42
2022-09-28T15:48:51.908Z,1.45
2022-09-28T15:51:51.978Z,1.83
2022-09-28T15:54:45.360Z,2.63
2022-09-28T15:57:39.959Z,3.50
2022-09-28T16:00:31.453Z,3.30
2022-09-28T16:03:23.997Z,3.03
2022-09-28T16:06:11.270Z,6.38
2022-09-28T16:08:59.960Z,6.28
2022-09-28T16:11:48.584Z,6.30
2022-09-28T16:14:36.969Z,3.53
2022-09-28T16:17:33.828Z,3.60
2022-09-28T16:20:36.941Z,3.00
2022-09-28T16:23:33.986Z,2.38
2022-09-28T16:26:40.949Z,1.90
2022-09-28T16:29:33.179Z,1.40
2022-09-28T16:32:27.998Z,1.75
2022-09-28T16:35:20.257Z,2.92
2022-09-28T16:38:15.927Z,11.30
2022-09-28T16:41:02.851Z,5.10
2022-09-28T16:43:57.920Z,3.87
2022-09-28T16:46:45.475Z,4.45
2022-09-28T16:49:35.995Z,2.00
2022-09-28T16:52:42.692Z,1.75
2022-09-28T16:55:46.202Z,2.80
2022-09-28T16:58:33.678Z,4.20
2022-09-28T17:01:24.981Z,4.90
2022-09-28T17:04:12.102Z,4.75
2022-09-28T17:07:00.965Z,4.47
2022-09-28T17:09:47.713Z,4.47
2022-09-28T17:12:36.933Z,4.60
2022-09-28T17:15:26.096Z,4.28
2022-09-28T17:18:18.928Z,4.35
2022-09-28T17:21:10.708Z,4.68
2022-09-28T17:23:58.931Z,4.40
2022-09-28T17:26:49.057Z,3.40
2022-09-28T17:29:36.967Z,3.85
2022-09-28T17:35:24.233Z,5.15
2022-09-28T17:38:13.916Z,6.75
2022-09-28T17:41:02.048Z,11.07
2022-09-28T17:43:49.373Z,15.18
2022-09-28T17:46:47.000Z,14.80
2022-09-28T17:49:33.834Z,11.25
2022-09-28T17:52:21.956Z,11.70
2022-09-28T17:55:09.237Z,10.25
2022-09-28T17:57:57.937Z,8.15
2022-09-28T18:00:46.513Z,6.03
2022-09-28T18:03:34.936Z,6.22
2022-09-28T18:06:23.666Z,6.55
2022-09-28T18:10:07.891Z,6.13
2022-09-28T18:13:50.716Z,5.95
2022-09-28T18:17:35.892Z,7.22
2022-09-28T18:21:19.005Z,6.38
2022-09-28T18:25:03.987Z,6.35
2022-09-28T18:28:47.243Z,7.47
2022-09-28T18:32:31.899Z,5.30
2022-09-28T18:36:15.006Z,4.90
2022-09-28T18:39:59.927Z,4.55
2022-09-28T18:43:43.040Z,4.72
2022-09-28T18:47:27.947Z,6.32
2022-09-28T18:51:10.997Z,6.00
2022-09-28T18:54:54.902Z,6.70
2022-09-28T18:58:19.016Z,6.88
2022-09-28T19:01:28.921Z,9.23
2022-09-28T19:04:16.620Z,5.30
2022-09-28T19:07:04.896Z,4.25
2022-09-28T19:09:52.799Z,3.70
2022-09-28T19:15:27.726Z,3.35
2022-09-28T19:18:15.889Z,3.30
2022-09-28T19:21:08.779Z,3.25
2022-09-28T19:23:57.921Z,3.72
2022-09-28T19:26:46.404Z,4.82
2022-09-28T19:29:34.956Z,5.32
2022-09-28T19:32:21.760Z,5.03
2022-09-28T19:35:10.899Z,5.00
2022-09-28T19:37:57.652Z,4.40
2022-09-28T19:40:47.967Z,3.60
2022-09-28T19:43:34.832Z,3.88
2022-09-28T19:46:23.916Z,3.92
2022-09-28T19:49:13.387Z,3.90
2022-09-28T19:52:13.306Z,4.20
2022-09-28T19:55:01.052Z,3.88
2022-09-28T19:57:49.909Z,3.43
2022-09-28T20:00:37.353Z,3.70
2022-09-28T20:03:26.876Z,3.40
2022-09-28T20:06:17.214Z,3.60
2022-09-28T20:09:06.904Z,3.33
2022-09-28T20:11:53.687Z,4.22
2022-09-28T20:14:41.880Z,4.25
2022-09-28T20:17:28.712Z,5.20
2022-09-28T20:20:16.925Z,4.70
2022-09-28T20:23:04.611Z,4.40
2022-09-28T20:25:54.855Z,4.50
2022-09-28T20:28:43.122Z,4.82
2022-09-28T20:31:31.949Z,5.20
2022-09-28T20:34:18.857Z,5.45
2022-09-28T20:37:06.882Z,5.03
2022-09-28T20:39:53.927Z,5.57
2022-09-28T20:42:43.871Z,5.43
2022-09-28T20:45:30.587Z,5.13
2022-09-28T20:48:18.947Z,5.55
2022-09-28T20:51:12.026Z,5.00
2022-09-28T20:54:00.888Z,4.82
2022-09-28T20:56:48.298Z,7.57
2022-09-28T20:59:36.885Z,7.70
2022-09-28T21:02:23.845Z,8.13
2022-09-28T21:05:11.885Z,9.13
2022-09-28T21:07:58.638Z,8.35
2022-09-28T21:10:46.882Z,7.20
2022-09-28T21:13:33.967Z,5.57
2022-09-28T21:16:22.869Z,4.72
2022-09-28T21:19:09.681Z,4.53
2022-09-28T21:21:57.881Z,4.63
2022-09-28T21:24:44.705Z,4.63
2022-09-28T21:27:32.908Z,4.82
2022-09-28T21:30:20.050Z,4.63
2022-09-28T21:33:08.859Z,4.88
2022-09-28T21:35:55.677Z,4.60
2022-09-28T21:38:43.842Z,4.00
2022-09-28T21:41:30.597Z,4.13
2022-09-28T21:44:18.914Z,4.00
2022-09-28T21:47:05.777Z,4.32
2022-09-28T21:49:53.820Z,4.53
2022-09-28T21:52:40.601Z,4.90
2022-09-28T21:55:28.966Z,5.30
2022-09-28T21:58:15.710Z,5.30
2022-09-28T22:01:06.934Z,5.15
2022-09-28T22:03:56.475Z,4.70
2022-09-28T22:06:44.848Z,4.70
2022-09-28T22:09:31.605Z,4.95
2022-09-28T22:12:19.907Z,4.60
2022-09-28T22:15:07.371Z,4.90
2022-09-28T22:17:55.876Z,4.40
2022-09-28T22:20:43.251Z,4.30
2022-09-28T22:23:31.867Z,4.00
2022-09-28T22:26:23.353Z,4.38
2022-09-28T22:29:11.848Z,4.65
2022-09-28T22:32:02.154Z,4.28
2022-09-28T22:34:50.842Z,5.25
2022-09-28T22:37:37.555Z,4.30
2022-09-28T22:40:27.877Z,4.95
2022-09-28T22:43:15.277Z,4.78
2022-09-28T22:46:04.852Z,5.55
2022-09-28T22:48:53.941Z,4.25
2022-09-28T22:51:42.860Z,4.40
2022-09-28T22:54:30.258Z,4.47
2022-09-28T22:57:19.816Z,4.85
2022-09-28T23:00:07.426Z,5.22
2022-09-28T23:02:56.842Z,4.50
2022-09-28T23:05:52.726Z,4.53
2022-09-28T23:08:42.824Z,4.32
2022-09-28T23:11:29.724Z,4.72
2022-09-28T23:14:17.801Z,4.18
2022-09-28T23:17:04.601Z,4.45
2022-09-28T23:19:52.826Z,4.70
2022-09-28T23:22:39.721Z,4.90
2022-09-28T23:25:29.839Z,4.13
2022-09-28T23:28:17.114Z,4.25
2022-09-28T23:31:23.875Z,4.38
2022-09-28T23:34:10.900Z,4.22
2022-09-28T23:36:58.816Z,4.27
2022-09-28T23:42:34.883Z,4.20
2022-09-28T23:45:21.705Z,3.90
2022-09-28T23:48:09.819Z,4.40
2022-09-28T23:50:56.704Z,3.92
2022-09-28T23:53:44.790Z,4.10
2022-09-28T23:56:31.535Z,4.22
2022-09-28T23:59:19.968Z,3.97
